sensor_id;sensor_type;location;lat;lon;timestamp;P1;durP1;ratioP1;P2;durP2;ratioP2
71172;SDS011;58875;51.996;4.504;2022-08-19T00:01:36;8.15;;;8.15;;
71172;SDS011;58875;51.996;4.504;2022-08-19T00:04:05;8.13;;;8.13;;
71172;SDS011;58875;51.996;4.504;2022-08-19T00:06:33;8.04;;;8.04;;
71172;SDS011;58875;51.996;4.504;2022-08-19T00:09:00;8.18;;;8.18;;
71172;SDS011;58875;51.996;4.504;2022-08-19T00:11:26;7.83;;;7.83;;
71172;SDS011;58875;51.996;4.504;2022-08-19T00:13:53;7.88;;;7.88;;
71172;SDS011;58875;51.996;4.504;2022-08-19T00:16:21;7.92;;;7.92;;
71172;SDS011;58875;51.996;4.504;2022-08-19T00:18:47;7.62;;;7.62;;
71172;SDS011;58875;51.996;4.504;2022-08-19T00:21:13;8.25;;;8.25;;
71172;SDS011;58875;51.996;4.504;2022-08-19T00:23:40;8.20;;;8.20;;
71172;SDS011;58875;51.996;4.504;2022-08-19T00:26:08;7.82;;;7.82;;
71172;SDS011;58875;51.996;4.504;2022-08-19T00:28:35;7.88;;;7.88;;
71172;SDS011;58875;51.996;4.504;2022-08-19T00:31:01;8.34;;;8.34;;
71172;SDS011;58875;51.996;4.504;2022-08-19T00:33:31;7.90;;;7.90;;
71172;SDS011;58875;51.996;4.504;2022-08-19T00:35:58;8.12;;;8.12;;
71172;SDS011;58875;51.996;4.504;2022-08-19T00:38:24;7.96;;;7.96;;
71172;SDS011;58875;51.996;4.504;2022-08-19T00:40:50;8.79;;;8.79;;
71172;SDS011;58875;51.996;4.504;2022-08-19T00:43:18;8.40;;;8.40;;
71172;SDS011;58875;51.996;4.504;2022-08-19T00:45:46;8.24;;;8.24;;
71172;SDS011;58875;51.996;4.504;2022-08-19T00:48:13;8.36;;;8.36;;
71172;SDS011;58875;51.996;4.504;2022-08-19T00:50:41;8.19;;;8.19;;
71172;SDS011;58875;51.996;4.504;2022-08-19T00:53:09;8.68;;;8.68;;
71172;SDS011;58875;51.996;4.504;2022-08-19T00:55:40;8.18;;;8.18;;
71172;SDS011;58875;51.996;4.504;2022-08-19T00:58:10;8.79;;;8.79;;
71172;SDS011;58875;51.996;4.504;2022-08-19T01:00:40;9.05;;;9.05;;
71172;SDS011;58875;51.996;4.504;2022-08-19T01:03:07;8.55;;;8.55;;
71172;SDS011;58875;51.996;4.504;2022-08-19T01:05:35;8.72;;;8.69;;
71172;SDS011;58875;51.996;4.504;2022-08-19T01:08:04;8.86;;;8.86;;
71172;SDS011;58875;51.996;4.504;2022-08-19T01:10:33;8.83;;;8.83;;
71172;SDS011;58875;51.996;4.504;2022-08-19T01:13:05;8.97;;;8.95;;
71172;SDS011;58875;51.996;4.504;2022-08-19T01:15:32;8.88;;;8.88;;
71172;SDS011;58875;51.996;4.504;2022-08-19T01:18:01;8.54;;;8.51;;
71172;SDS011;58875;51.996;4.504;2022-08-19T01:20:32;8.37;;;8.37;;
71172;SDS011;58875;51.996;4.504;2022-08-19T01:22:59;8.68;;;8.68;;
71172;SDS011;58875;51.996;4.504;2022-08-19T01:25:27;8.62;;;8.55;;
71172;SDS011;58875;51.996;4.504;2022-08-19T01:27:57;8.98;;;8.98;;
71172;SDS011;58875;51.996;4.504;2022-08-19T01:30:25;9.03;;;9.02;;
71172;SDS011;58875;51.996;4.504;2022-08-19T01:32:55;9.28;;;9.28;;
71172;SDS011;58875;51.996;4.504;2022-08-19T01:35:24;9.18;;;9.18;;
71172;SDS011;58875;51.996;4.504;2022-08-19T01:37:58;9.15;;;9.15;;
71172;SDS011;58875;51.996;4.504;2022-08-19T01:40:28;9.41;;;9.41;;
71172;SDS011;58875;51.996;4.504;2022-08-19T01:42:56;9.80;;;9.78;;
71172;SDS011;58875;51.996;4.504;2022-08-19T01:45:24;9.48;;;9.48;;
71172;SDS011;58875;51.996;4.504;2022-08-19T01:47:52;10.06;;;10.06;;
71172;SDS011;58875;51.996;4.504;2022-08-19T01:50:18;9.77;;;9.77;;
71172;SDS011;58875;51.996;4.504;2022-08-19T01:52:44;10.19;;;10.18;;
71172;SDS011;58875;51.996;4.504;2022-08-19T01:55:12;10.57;;;10.57;;
71172;SDS011;58875;51.996;4.504;2022-08-19T01:57:41;11.96;;;11.96;;
71172;SDS011;58875;51.996;4.504;2022-08-19T02:00:12;12.58;;;12.56;;
71172;SDS011;58875;51.996;4.504;2022-08-19T02:02:41;13.81;;;13.80;;
71172;SDS011;58875;51.996;4.504;2022-08-19T02:05:07;14.58;;;14.23;;
71172;SDS011;58875;51.996;4.504;2022-08-19T02:07:34;14.48;;;14.23;;
71172;SDS011;58875;51.996;4.504;2022-08-19T02:10:02;14.11;;;14.10;;
71172;SDS011;58875;51.996;4.504;2022-08-19T02:12:29;14.68;;;14.61;;
71172;SDS011;58875;51.996;4.504;2022-08-19T02:14:54;14.57;;;14.54;;
71172;SDS011;58875;51.996;4.504;2022-08-19T02:17:20;15.07;;;14.94;;
71172;SDS011;58875;51.996;4.504;2022-08-19T02:19:45;15.39;;;15.26;;
71172;SDS011;58875;51.996;4.504;2022-08-19T02:22:11;15.71;;;15.67;;
71172;SDS011;58875;51.996;4.504;2022-08-19T02:24:36;16.25;;;16.17;;
71172;SDS011;58875;51.996;4.504;2022-08-19T02:27:03;17.83;;;17.43;;
71172;SDS011;58875;51.996;4.504;2022-08-19T02:29:29;18.85;;;18.53;;
71172;SDS011;58875;51.996;4.504;2022-08-19T02:31:55;18.27;;;18.04;;
71172;SDS011;58875;51.996;4.504;2022-08-19T02:34:21;18.79;;;18.71;;
71172;SDS011;58875;51.996;4.504;2022-08-19T02:36:46;18.71;;;18.45;;
71172;SDS011;58875;51.996;4.504;2022-08-19T02:39:12;18.06;;;17.96;;
71172;SDS011;58875;51.996;4.504;2022-08-19T02:41:38;19.36;;;19.18;;
71172;SDS011;58875;51.996;4.504;2022-08-19T02:44:04;18.43;;;18.13;;
71172;SDS011;58875;51.996;4.504;2022-08-19T02:46:30;19.63;;;19.33;;
71172;SDS011;58875;51.996;4.504;2022-08-19T02:48:59;19.27;;;18.98;;
71172;SDS011;58875;51.996;4.504;2022-08-19T02:51:29;19.57;;;19.33;;
71172;SDS011;58875;51.996;4.504;2022-08-19T02:54:00;19.79;;;19.42;;
71172;SDS011;58875;51.996;4.504;2022-08-19T02:56:26;20.86;;;20.44;;
71172;SDS011;58875;51.996;4.504;2022-08-19T02:58:53;20.36;;;19.97;;
71172;SDS011;58875;51.996;4.504;2022-08-19T03:01:21;20.46;;;20.03;;
71172;SDS011;58875;51.996;4.504;2022-08-19T03:03:49;20.97;;;20.41;;
71172;SDS011;58875;51.996;4.504;2022-08-19T03:06:15;21.60;;;21.17;;
71172;SDS011;58875;51.996;4.504;2022-08-19T03:08:42;22.63;;;22.14;;
71172;SDS011;58875;51.996;4.504;2022-08-19T03:11:18;23.95;;;23.48;;
71172;SDS011;58875;51.996;4.504;2022-08-19T03:13:49;24.16;;;23.54;;
71172;SDS011;58875;51.996;4.504;2022-08-19T03:16:16;25.29;;;24.75;;
71172;SDS011;58875;51.996;4.504;2022-08-19T03:18:43;27.21;;;26.41;;
71172;SDS011;58875;51.996;4.504;2022-08-19T03:21:14;26.02;;;25.71;;
71172;SDS011;58875;51.996;4.504;2022-08-19T03:23:42;25.38;;;24.90;;
71172;SDS011;58875;51.996;4.504;2022-08-19T03:26:07;26.55;;;25.74;;
71172;SDS011;58875;51.996;4.504;2022-08-19T03:28:33;26.77;;;26.14;;
71172;SDS011;58875;51.996;4.504;2022-08-19T03:31:03;28.33;;;27.48;;
71172;SDS011;58875;51.996;4.504;2022-08-19T03:33:33;27.36;;;26.45;;
71172;SDS011;58875;51.996;4.504;2022-08-19T03:36:00;28.35;;;27.28;;
71172;SDS011;58875;51.996;4.504;2022-08-19T03:38:26;26.70;;;25.74;;
71172;SDS011;58875;51.996;4.504;2022-08-19T03:40:53;27.96;;;27.04;;
71172;SDS011;58875;51.996;4.504;2022-08-19T03:43:18;27.50;;;27.04;;
71172;SDS011;58875;51.996;4.504;2022-08-19T03:45:44;27.60;;;27.03;;
71172;SDS011;58875;51.996;4.504;2022-08-19T03:48:09;27.67;;;26.85;;
71172;SDS011;58875;51.996;4.504;2022-08-19T03:50:39;28.28;;;27.14;;
71172;SDS011;58875;51.996;4.504;2022-08-19T03:53:05;29.25;;;28.20;;
71172;SDS011;58875;51.996;4.504;2022-08-19T03:55:32;30.14;;;28.93;;
71172;SDS011;58875;51.996;4.504;2022-08-19T03:57:57;29.82;;;28.34;;
71172;SDS011;58875;51.996;4.504;2022-08-19T04:00:23;28.65;;;27.90;;
71172;SDS011;58875;51.996;4.504;2022-08-19T04:02:49;29.82;;;28.59;;
71172;SDS011;58875;51.996;4.504;2022-08-19T04:05:14;28.63;;;27.72;;
71172;SDS011;58875;51.996;4.504;2022-08-19T04:07:40;29.11;;;28.43;;
71172;SDS011;58875;51.996;4.504;2022-08-19T04:10:05;29.14;;;28.20;;
71172;SDS011;58875;51.996;4.504;2022-08-19T04:12:31;30.97;;;29.78;;
71172;SDS011;58875;51.996;4.504;2022-08-19T04:14:57;32.56;;;31.06;;
71172;SDS011;58875;51.996;4.504;2022-08-19T04:17:23;33.84;;;32.08;;
71172;SDS011;58875;51.996;4.504;2022-08-19T04:19:49;34.98;;;33.26;;
71172;SDS011;58875;51.996;4.504;2022-08-19T04:22:14;36.23;;;34.29;;
71172;SDS011;58875;51.996;4.504;2022-08-19T04:24:40;37.36;;;34.85;;
71172;SDS011;58875;51.996;4.504;2022-08-19T04:27:06;35.73;;;34.09;;
71172;SDS011;58875;51.996;4.504;2022-08-19T04:29:32;38.20;;;36.16;;
71172;SDS011;58875;51.996;4.504;2022-08-19T04:31:58;36.65;;;34.63;;
71172;SDS011;58875;51.996;4.504;2022-08-19T04:34:26;34.38;;;32.58;;
71172;SDS011;58875;51.996;4.504;2022-08-19T04:36:54;34.75;;;32.93;;
71172;SDS011;58875;51.996;4.504;2022-08-19T04:39:22;36.74;;;34.43;;
71172;SDS011;58875;51.996;4.504;2022-08-19T04:42:13;35.32;;;33.33;;
71172;SDS011;58875;51.996;4.504;2022-08-19T04:44:59;35.49;;;33.68;;
71172;SDS011;58875;51.996;4.504;2022-08-19T04:47:25;36.35;;;34.10;;
71172;SDS011;58875;51.996;4.504;2022-08-19T04:49:51;35.74;;;33.61;;
71172;SDS011;58875;51.996;4.504;2022-08-19T04:52:16;36.93;;;34.58;;
71172;SDS011;58875;51.996;4.504;2022-08-19T04:54:42;39.35;;;35.91;;
71172;SDS011;58875;51.996;4.504;2022-08-19T04:57:08;38.00;;;34.90;;
71172;SDS011;58875;51.996;4.504;2022-08-19T04:59:35;37.33;;;34.59;;
71172;SDS011;58875;51.996;4.504;2022-08-19T05:02:02;36.84;;;34.04;;
71172;SDS011;58875;51.996;4.504;2022-08-19T05:04:29;37.70;;;34.46;;
71172;SDS011;58875;51.996;4.504;2022-08-19T05:06:58;36.85;;;34.42;;
71172;SDS011;58875;51.996;4.504;2022-08-19T05:09:25;36.50;;;33.97;;
71172;SDS011;58875;51.996;4.504;2022-08-19T05:11:51;38.50;;;35.43;;
71172;SDS011;58875;51.996;4.504;2022-08-19T05:14:18;37.10;;;34.44;;
71172;SDS011;58875;51.996;4.504;2022-08-19T05:16:44;36.66;;;34.10;;
71172;SDS011;58875;51.996;4.504;2022-08-19T05:19:10;35.85;;;33.52;;
71172;SDS011;58875;51.996;4.504;2022-08-19T05:21:54;37.24;;;34.41;;
71172;SDS011;58875;51.996;4.504;2022-08-19T05:24:38;36.24;;;33.92;;
71172;SDS011;58875;51.996;4.504;2022-08-19T05:27:07;37.13;;;34.13;;
71172;SDS011;58875;51.996;4.504;2022-08-19T05:29:33;35.29;;;33.24;;
71172;SDS011;58875;51.996;4.504;2022-08-19T05:31:59;36.19;;;33.68;;
71172;SDS011;58875;51.996;4.504;2022-08-19T05:34:26;36.07;;;33.55;;
71172;SDS011;58875;51.996;4.504;2022-08-19T05:36:54;34.95;;;33.31;;
71172;SDS011;58875;51.996;4.504;2022-08-19T05:39:23;36.49;;;34.42;;
71172;SDS011;58875;51.996;4.504;2022-08-19T05:41:56;35.28;;;33.54;;
71172;SDS011;58875;51.996;4.504;2022-08-19T05:44:25;35.41;;;33.65;;
71172;SDS011;58875;51.996;4.504;2022-08-19T05:46:56;35.56;;;33.86;;
71172;SDS011;58875;51.996;4.504;2022-08-19T05:49:23;35.23;;;33.64;;
71172;SDS011;58875;51.996;4.504;2022-08-19T05:51:50;34.24;;;33.03;;
71172;SDS011;58875;51.996;4.504;2022-08-19T05:54:17;33.76;;;32.61;;
71172;SDS011;58875;51.996;4.504;2022-08-19T05:56:44;34.20;;;32.48;;
71172;SDS011;58875;51.996;4.504;2022-08-19T05:59:13;32.25;;;31.21;;
71172;SDS011;58875;51.996;4.504;2022-08-19T06:01:42;31.13;;;30.30;;
71172;SDS011;58875;51.996;4.504;2022-08-19T06:04:10;31.25;;;30.34;;
71172;SDS011;58875;51.996;4.504;2022-08-19T06:06:39;30.28;;;29.37;;
71172;SDS011;58875;51.996;4.504;2022-08-19T06:09:06;30.77;;;29.72;;
71172;SDS011;58875;51.996;4.504;2022-08-19T06:11:46;30.72;;;29.80;;
71172;SDS011;58875;51.996;4.504;2022-08-19T06:14:26;30.32;;;29.71;;
71172;SDS011;58875;51.996;4.504;2022-08-19T06:16:54;30.89;;;29.98;;
71172;SDS011;58875;51.996;4.504;2022-08-19T06:19:21;31.16;;;30.23;;
71172;SDS011;58875;51.996;4.504;2022-08-19T06:21:49;31.09;;;30.27;;
71172;SDS011;58875;51.996;4.504;2022-08-19T06:24:18;32.88;;;31.44;;
71172;SDS011;58875;51.996;4.504;2022-08-19T06:26:46;32.27;;;30.88;;
71172;SDS011;58875;51.996;4.504;2022-08-19T06:29:13;30.13;;;29.26;;
71172;SDS011;58875;51.996;4.504;2022-08-19T06:31:45;30.78;;;29.77;;
71172;SDS011;58875;51.996;4.504;2022-08-19T06:34:15;30.46;;;29.45;;
71172;SDS011;58875;51.996;4.504;2022-08-19T06:36:42;30.67;;;29.71;;
71172;SDS011;58875;51.996;4.504;2022-08-19T06:39:11;31.25;;;30.18;;
71172;SDS011;58875;51.996;4.504;2022-08-19T06:41:44;30.52;;;29.79;;
71172;SDS011;58875;51.996;4.504;2022-08-19T06:44:12;30.30;;;29.52;;
71172;SDS011;58875;51.996;4.504;2022-08-19T06:46:39;29.08;;;28.48;;
71172;SDS011;58875;51.996;4.504;2022-08-19T06:49:06;29.03;;;28.48;;
71172;SDS011;58875;51.996;4.504;2022-08-19T06:51:35;29.82;;;29.19;;
71172;SDS011;58875;51.996;4.504;2022-08-19T06:54:01;29.23;;;28.45;;
71172;SDS011;58875;51.996;4.504;2022-08-19T06:56:29;28.38;;;27.57;;
71172;SDS011;58875;51.996;4.504;2022-08-19T06:59:17;29.69;;;28.93;;
71172;SDS011;58875;51.996;4.504;2022-08-19T07:01:46;28.90;;;28.19;;
71172;SDS011;58875;51.996;4.504;2022-08-19T07:04:16;28.20;;;27.58;;
71172;SDS011;58875;51.996;4.504;2022-08-19T07:06:44;29.58;;;28.71;;
71172;SDS011;58875;51.996;4.504;2022-08-19T07:09:11;30.13;;;29.49;;
71172;SDS011;58875;51.996;4.504;2022-08-19T07:11:39;30.96;;;30.09;;
71172;SDS011;58875;51.996;4.504;2022-08-19T07:14:10;30.77;;;30.03;;
71172;SDS011;58875;51.996;4.504;2022-08-19T07:16:35;30.20;;;29.38;;
71172;SDS011;58875;51.996;4.504;2022-08-19T07:19:01;29.63;;;29.07;;
71172;SDS011;58875;51.996;4.504;2022-08-19T07:21:27;29.12;;;28.57;;
71172;SDS011;58875;51.996;4.504;2022-08-19T07:23:54;28.85;;;28.33;;
71172;SDS011;58875;51.996;4.504;2022-08-19T07:26:23;27.77;;;27.24;;
71172;SDS011;58875;51.996;4.504;2022-08-19T07:28:54;26.45;;;26.19;;
71172;SDS011;58875;51.996;4.504;2022-08-19T07:31:22;25.69;;;25.42;;
71172;SDS011;58875;51.996;4.504;2022-08-19T07:33:50;24.64;;;24.10;;
71172;SDS011;58875;51.996;4.504;2022-08-19T07:36:21;24.61;;;24.10;;
71172;SDS011;58875;51.996;4.504;2022-08-19T07:38:52;23.86;;;23.41;;
71172;SDS011;58875;51.996;4.504;2022-08-19T07:41:21;23.03;;;22.60;;
71172;SDS011;58875;51.996;4.504;2022-08-19T07:43:49;23.18;;;22.63;;
71172;SDS011;58875;51.996;4.504;2022-08-19T07:46:16;22.19;;;21.99;;
71172;SDS011;58875;51.996;4.504;2022-08-19T07:48:43;21.21;;;21.01;;
71172;SDS011;58875;51.996;4.504;2022-08-19T07:51:13;21.15;;;20.85;;
71172;SDS011;58875;51.996;4.504;2022-08-19T07:53:46;20.99;;;20.86;;
71172;SDS011;58875;51.996;4.504;2022-08-19T07:56:16;20.98;;;20.75;;
71172;SDS011;58875;51.996;4.504;2022-08-19T07:58:44;21.67;;;21.43;;
71172;SDS011;58875;51.996;4.504;2022-08-19T08:01:12;21.46;;;21.33;;
71172;SDS011;58875;51.996;4.504;2022-08-19T08:03:42;21.37;;;21.11;;
71172;SDS011;58875;51.996;4.504;2022-08-19T08:06:26;20.73;;;20.61;;
71172;SDS011;58875;51.996;4.504;2022-08-19T08:09:11;20.11;;;20.06;;
71172;SDS011;58875;51.996;4.504;2022-08-19T08:11:42;20.32;;;20.10;;
71172;SDS011;58875;51.996;4.504;2022-08-19T08:14:27;20.52;;;20.33;;
71172;SDS011;58875;51.996;4.504;2022-08-19T08:16:56;19.36;;;19.33;;
71172;SDS011;58875;51.996;4.504;2022-08-19T08:19:23;18.43;;;18.37;;
71172;SDS011;58875;51.996;4.504;2022-08-19T08:21:51;19.29;;;19.01;;
71172;SDS011;58875;51.996;4.504;2022-08-19T08:24:21;18.77;;;18.62;;
71172;SDS011;58875;51.996;4.504;2022-08-19T08:26:47;18.10;;;17.89;;
71172;SDS011;58875;51.996;4.504;2022-08-19T08:29:13;17.46;;;17.41;;
71172;SDS011;58875;51.996;4.504;2022-08-19T08:31:42;17.16;;;16.85;;
71172;SDS011;58875;51.996;4.504;2022-08-19T08:34:09;16.13;;;16.09;;
71172;SDS011;58875;51.996;4.504;2022-08-19T08:36:39;15.83;;;15.79;;
71172;SDS011;58875;51.996;4.504;2022-08-19T08:39:10;15.93;;;15.93;;
71172;SDS011;58875;51.996;4.504;2022-08-19T08:42:05;15.36;;;15.36;;
71172;SDS011;58875;51.996;4.504;2022-08-19T08:47:03;13.91;;;13.91;;
71172;SDS011;58875;51.996;4.504;2022-08-19T08:49:47;14.57;;;14.56;;
71172;SDS011;58875;51.996;4.504;2022-08-19T08:52:46;13.63;;;13.63;;
71172;SDS011;58875;51.996;4.504;2022-08-19T08:55:17;13.59;;;13.59;;
71172;SDS011;58875;51.996;4.504;2022-08-19T09:00:24;13.97;;;13.97;;
71172;SDS011;58875;51.996;4.504;2022-08-19T09:02:56;13.75;;;13.75;;
71172;SDS011;58875;51.996;4.504;2022-08-19T09:05:23;13.12;;;13.12;;
71172;SDS011;58875;51.996;4.504;2022-08-19T09:08:02;12.14;;;12.14;;
71172;SDS011;58875;51.996;4.504;2022-08-19T09:10:38;11.83;;;11.83;;
71172;SDS011;58875;51.996;4.504;2022-08-19T09:13:15;11.53;;;11.53;;
71172;SDS011;58875;51.996;4.504;2022-08-19T09:16:12;10.96;;;10.96;;
71172;SDS011;58875;51.996;4.504;2022-08-19T09:18:53;11.04;;;11.04;;
71172;SDS011;58875;51.996;4.504;2022-08-19T09:21:22;11.19;;;11.19;;
71172;SDS011;58875;51.996;4.504;2022-08-19T09:23:50;10.85;;;10.85;;
71172;SDS011;58875;51.996;4.504;2022-08-19T09:26:18;10.92;;;10.92;;
71172;SDS011;58875;51.996;4.504;2022-08-19T09:28:47;11.20;;;11.20;;
71172;SDS011;58875;51.996;4.504;2022-08-19T09:31:17;10.05;;;10.05;;
71172;SDS011;58875;51.996;4.504;2022-08-19T09:33:45;9.77;;;9.77;;
71172;SDS011;58875;51.996;4.504;2022-08-19T09:38:42;10.20;;;10.20;;
71172;SDS011;58875;51.996;4.504;2022-08-19T09:41:09;10.02;;;10.02;;
71172;SDS011;58875;51.996;4.504;2022-08-19T09:43:38;9.38;;;9.38;;
71172;SDS011;58875;51.996;4.504;2022-08-19T09:46:06;9.66;;;9.66;;
71172;SDS011;58875;51.996;4.504;2022-08-19T09:48:34;9.27;;;9.27;;
71172;SDS011;58875;51.996;4.504;2022-08-19T09:51:02;8.38;;;8.38;;
71172;SDS011;58875;51.996;4.504;2022-08-19T09:53:37;8.31;;;8.31;;
71172;SDS011;58875;51.996;4.504;2022-08-19T09:56:04;8.80;;;8.80;;
71172;SDS011;58875;51.996;4.504;2022-08-19T09:58:31;8.31;;;8.31;;
71172;SDS011;58875;51.996;4.504;2022-08-19T10:00:58;7.31;;;7.31;;
71172;SDS011;58875;51.996;4.504;2022-08-19T10:03:26;6.73;;;6.73;;
71172;SDS011;58875;51.996;4.504;2022-08-19T10:05:53;6.35;;;6.35;;
71172;SDS011;58875;51.996;4.504;2022-08-19T10:08:21;5.89;;;5.89;;
71172;SDS011;58875;51.996;4.504;2022-08-19T10:10:50;5.80;;;5.80;;
71172;SDS011;58875;51.996;4.504;2022-08-19T10:13:17;5.40;;;5.40;;
71172;SDS011;58875;51.996;4.504;2022-08-19T10:15:48;5.92;;;5.92;;
71172;SDS011;58875;51.996;4.504;2022-08-19T10:18:18;7.51;;;7.51;;
71172;SDS011;58875;51.996;4.504;2022-08-19T10:20:46;7.75;;;7.75;;
71172;SDS011;58875;51.996;4.504;2022-08-19T10:23:13;7.85;;;7.85;;
71172;SDS011;58875;51.996;4.504;2022-08-19T10:25:40;7.86;;;7.86;;
71172;SDS011;58875;51.996;4.504;2022-08-19T10:28:07;8.26;;;8.26;;
71172;SDS011;58875;51.996;4.504;2022-08-19T10:30:35;8.01;;;8.01;;
71172;SDS011;58875;51.996;4.504;2022-08-19T10:33:01;6.83;;;6.83;;
71172;SDS011;58875;51.996;4.504;2022-08-19T10:35:26;5.43;;;5.43;;
71172;SDS011;58875;51.996;4.504;2022-08-19T10:37:53;4.58;;;4.58;;
71172;SDS011;58875;51.996;4.504;2022-08-19T10:40:19;4.34;;;4.34;;
71172;SDS011;58875;51.996;4.504;2022-08-19T10:42:44;4.05;;;4.05;;
71172;SDS011;58875;51.996;4.504;2022-08-19T10:45:10;4.23;;;4.23;;
71172;SDS011;58875;51.996;4.504;2022-08-19T10:47:35;4.40;;;4.40;;
71172;SDS011;58875;51.996;4.504;2022-08-19T10:50:02;3.84;;;3.84;;
71172;SDS011;58875;51.996;4.504;2022-08-19T10:52:47;3.43;;;3.43;;
71172;SDS011;58875;51.996;4.504;2022-08-19T10:55:15;3.32;;;3.32;;
71172;SDS011;58875;51.996;4.504;2022-08-19T10:57:59;3.80;;;3.80;;
71172;SDS011;58875;51.996;4.504;2022-08-19T11:00:25;3.74;;;3.74;;
71172;SDS011;58875;51.996;4.504;2022-08-19T11:02:51;3.62;;;3.62;;
71172;SDS011;58875;51.996;4.504;2022-08-19T11:05:17;3.15;;;3.15;;
71172;SDS011;58875;51.996;4.504;2022-08-19T11:07:44;2.96;;;2.96;;
71172;SDS011;58875;51.996;4.504;2022-08-19T11:10:11;3.30;;;3.30;;
71172;SDS011;58875;51.996;4.504;2022-08-19T11:12:39;3.08;;;3.08;;
71172;SDS011;58875;51.996;4.504;2022-08-19T11:15:07;3.31;;;3.31;;
71172;SDS011;58875;51.996;4.504;2022-08-19T11:17:37;3.63;;;3.63;;
71172;SDS011;58875;51.996;4.504;2022-08-19T11:20:06;3.85;;;3.85;;
71172;SDS011;58875;51.996;4.504;2022-08-19T11:22:33;3.77;;;3.77;;
71172;SDS011;58875;51.996;4.504;2022-08-19T11:24:59;3.57;;;3.57;;
71172;SDS011;58875;51.996;4.504;2022-08-19T11:27:24;3.71;;;3.71;;
71172;SDS011;58875;51.996;4.504;2022-08-19T11:29:50;3.44;;;3.44;;
71172;SDS011;58875;51.996;4.504;2022-08-19T11:32:17;3.25;;;3.25;;
71172;SDS011;58875;51.996;4.504;2022-08-19T11:34:43;3.25;;;3.25;;
71172;SDS011;58875;51.996;4.504;2022-08-19T11:37:08;3.42;;;3.42;;
71172;SDS011;58875;51.996;4.504;2022-08-19T11:39:34;3.22;;;3.22;;
71172;SDS011;58875;51.996;4.504;2022-08-19T11:42:03;3.07;;;3.07;;
71172;SDS011;58875;51.996;4.504;2022-08-19T11:44:50;3.01;;;3.01;;
71172;SDS011;58875;51.996;4.504;2022-08-19T11:47:15;2.55;;;2.55;;
71172;SDS011;58875;51.996;4.504;2022-08-19T11:49:41;2.71;;;2.71;;
71172;SDS011;58875;51.996;4.504;2022-08-19T11:52:07;2.68;;;2.68;;
71172;SDS011;58875;51.996;4.504;2022-08-19T11:54:33;3.04;;;3.04;;
71172;SDS011;58875;51.996;4.504;2022-08-19T11:56:58;3.02;;;3.02;;
71172;SDS011;58875;51.996;4.504;2022-08-19T11:59:26;3.59;;;3.59;;
71172;SDS011;58875;51.996;4.504;2022-08-19T12:01:52;3.47;;;3.47;;
71172;SDS011;58875;51.996;4.504;2022-08-19T12:04:17;3.58;;;3.58;;
71172;SDS011;58875;51.996;4.504;2022-08-19T12:06:43;4.02;;;4.02;;
71172;SDS011;58875;51.996;4.504;2022-08-19T12:09:09;3.81;;;3.81;;
71172;SDS011;58875;51.996;4.504;2022-08-19T12:11:36;3.61;;;3.61;;
71172;SDS011;58875;51.996;4.504;2022-08-19T12:14:03;3.67;;;3.67;;
71172;SDS011;58875;51.996;4.504;2022-08-19T12:16:29;3.52;;;3.52;;
71172;SDS011;58875;51.996;4.504;2022-08-19T12:18:57;3.52;;;3.52;;
71172;SDS011;58875;51.996;4.504;2022-08-19T12:21:28;3.37;;;3.37;;
71172;SDS011;58875;51.996;4.504;2022-08-19T12:23:56;3.25;;;3.25;;
71172;SDS011;58875;51.996;4.504;2022-08-19T12:26:23;3.26;;;3.26;;
71172;SDS011;58875;51.996;4.504;2022-08-19T12:28:50;3.38;;;3.38;;
71172;SDS011;58875;51.996;4.504;2022-08-19T12:31:16;3.46;;;3.46;;
71172;SDS011;58875;51.996;4.504;2022-08-19T12:33:44;3.49;;;3.49;;
71172;SDS011;58875;51.996;4.504;2022-08-19T12:36:12;3.39;;;3.39;;
71172;SDS011;58875;51.996;4.504;2022-08-19T12:38:40;3.44;;;3.44;;
71172;SDS011;58875;51.996;4.504;2022-08-19T12:41:07;3.68;;;3.68;;
71172;SDS011;58875;51.996;4.504;2022-08-19T12:43:37;3.94;;;3.94;;
71172;SDS011;58875;51.996;4.504;2022-08-19T12:46:04;3.80;;;3.80;;
71172;SDS011;58875;51.996;4.504;2022-08-19T12:48:31;3.96;;;3.96;;
71172;SDS011;58875;51.996;4.504;2022-08-19T12:51:00;3.51;;;3.51;;
71172;SDS011;58875;51.996;4.504;2022-08-19T12:53:30;3.59;;;3.59;;
71172;SDS011;58875;51.996;4.504;2022-08-19T12:55:56;3.59;;;3.59;;
71172;SDS011;58875;51.996;4.504;2022-08-19T12:58:22;3.79;;;3.79;;
71172;SDS011;58875;51.996;4.504;2022-08-19T13:00:48;3.88;;;3.88;;
71172;SDS011;58875;51.996;4.504;2022-08-19T13:03:14;4.03;;;4.03;;
71172;SDS011;58875;51.996;4.504;2022-08-19T13:05:40;4.12;;;4.12;;
71172;SDS011;58875;51.996;4.504;2022-08-19T13:08:06;3.93;;;3.93;;
71172;SDS011;58875;51.996;4.504;2022-08-19T13:10:33;3.75;;;3.75;;
71172;SDS011;58875;51.996;4.504;2022-08-19T13:13:00;4.34;;;4.34;;
71172;SDS011;58875;51.996;4.504;2022-08-19T13:15:32;4.23;;;4.23;;
71172;SDS011;58875;51.996;4.504;2022-08-19T13:17:59;3.95;;;3.95;;
71172;SDS011;58875;51.996;4.504;2022-08-19T13:20:25;3.97;;;3.97;;
71172;SDS011;58875;51.996;4.504;2022-08-19T13:22:51;3.59;;;3.59;;
71172;SDS011;58875;51.996;4.504;2022-08-19T13:25:17;3.95;;;3.95;;
71172;SDS011;58875;51.996;4.504;2022-08-19T13:27:45;3.66;;;3.66;;
71172;SDS011;58875;51.996;4.504;2022-08-19T13:30:13;3.44;;;3.44;;
71172;SDS011;58875;51.996;4.504;2022-08-19T13:32:59;3.53;;;3.53;;
71172;SDS011;58875;51.996;4.504;2022-08-19T13:35:41;3.25;;;3.25;;
71172;SDS011;58875;51.996;4.504;2022-08-19T13:38:08;3.25;;;3.25;;
71172;SDS011;58875;51.996;4.504;2022-08-19T13:40:34;2.94;;;2.94;;
71172;SDS011;58875;51.996;4.504;2022-08-19T13:43:01;2.72;;;2.72;;
71172;SDS011;58875;51.996;4.504;2022-08-19T13:45:29;2.70;;;2.70;;
71172;SDS011;58875;51.996;4.504;2022-08-19T13:47:59;2.45;;;2.45;;
71172;SDS011;58875;51.996;4.504;2022-08-19T13:50:30;2.55;;;2.55;;
71172;SDS011;58875;51.996;4.504;2022-08-19T13:52:56;2.85;;;2.85;;
71172;SDS011;58875;51.996;4.504;2022-08-19T13:55:23;2.11;;;2.11;;
71172;SDS011;58875;51.996;4.504;2022-08-19T13:57:50;2.04;;;2.04;;
71172;SDS011;58875;51.996;4.504;2022-08-19T14:00:18;1.87;;;1.87;;
71172;SDS011;58875;51.996;4.504;2022-08-19T14:02:44;2.02;;;2.02;;
71172;SDS011;58875;51.996;4.504;2022-08-19T14:05:13;2.51;;;2.51;;
71172;SDS011;58875;51.996;4.504;2022-08-19T14:07:42;2.81;;;2.81;;
71172;SDS011;58875;51.996;4.504;2022-08-19T14:10:09;2.86;;;2.86;;
71172;SDS011;58875;51.996;4.504;2022-08-19T14:12:37;2.07;;;2.07;;
71172;SDS011;58875;51.996;4.504;2022-08-19T14:15:04;1.94;;;1.94;;
71172;SDS011;58875;51.996;4.504;2022-08-19T14:17:31;1.88;;;1.88;;
71172;SDS011;58875;51.996;4.504;2022-08-19T14:20:00;1.99;;;1.99;;
71172;SDS011;58875;51.996;4.504;2022-08-19T14:22:34;2.34;;;2.34;;
71172;SDS011;58875;51.996;4.504;2022-08-19T14:25:01;2.23;;;2.23;;
71172;SDS011;58875;51.996;4.504;2022-08-19T14:27:27;2.57;;;2.57;;
71172;SDS011;58875;51.996;4.504;2022-08-19T14:29:53;2.60;;;2.60;;
71172;SDS011;58875;51.996;4.504;2022-08-19T14:32:21;2.28;;;2.28;;
71172;SDS011;58875;51.996;4.504;2022-08-19T14:34:47;2.44;;;2.44;;
71172;SDS011;58875;51.996;4.504;2022-08-19T14:37:13;2.32;;;2.32;;
71172;SDS011;58875;51.996;4.504;2022-08-19T14:39:43;2.28;;;2.28;;
71172;SDS011;58875;51.996;4.504;2022-08-19T14:42:12;2.42;;;2.42;;
71172;SDS011;58875;51.996;4.504;2022-08-19T14:44:39;2.39;;;2.39;;
71172;SDS011;58875;51.996;4.504;2022-08-19T14:47:05;2.46;;;2.46;;
71172;SDS011;58875;51.996;4.504;2022-08-19T14:49:32;2.55;;;2.55;;